Time;durP1;ratioP1;P1;durP2;ratioP2;P2;SDS_P1;SDS_P2;PMS_P1;PMS_P2;Temp;Humidity;BMP_temperature;BMP_pressure;BME280_temperature;BME280_humidity;BME280_pressure;Samples;Min_cycle;Max_cycle;Signal;HPM_P1;HPM_P2
2022/03/29 00:01:31;;;;;;;60.23;27.03;;;6.60;1.00;;;;;;4995334;28;20267;-53
2022/03/29 00:03:57;;;;;;;54.40;25.70;;;6.50;1.00;;;;;;4989799;28;21095;-52
2022/03/29 00:06:22;;;;;;;58.90;24.70;;;6.50;1.00;;;;;;4995226;28;20539;-52
2022/03/29 00:08:48;;;;;;;52.40;26.30;;;6.60;1.00;;;;;;4996036;28;20307;-52
2022/03/29 00:11:14;;;;;;;48.63;23.97;;;6.50;1.00;;;;;;4996783;28;20172;-52
2022/03/29 00:13:40;;;;;;;48.87;24.67;;;6.60;1.00;;;;;;4999138;28;20668;-52
2022/03/29 00:16:05;;;;;;;57.07;25.27;;;6.60;1.00;;;;;;4995123;28;20808;-53
2022/03/29 00:18:31;;;;;;;56.37;26.83;;;6.60;1.00;;;;;;4994758;28;20200;-52
2022/03/29 00:20:57;;;;;;;52.50;25.50;;;6.60;1.00;;;;;;4986044;28;20883;-53
2022/03/29 00:23:22;;;;;;;63.53;26.40;;;6.60;1.00;;;;;;4995483;28;20235;-52
2022/03/29 00:25:48;;;;;;;53.70;25.80;;;6.60;1.00;;;;;;4995428;28;20959;-52
2022/03/29 00:28:14;;;;;;;54.00;25.53;;;6.60;1.00;;;;;;4995121;28;20210;-53
2022/03/29 00:30:40;;;;;;;58.70;24.97;;;6.60;1.00;;;;;;4992169;28;20185;-52
2022/03/29 00:33:06;;;;;;;51.57;25.53;;;6.60;1.00;;;;;;4992422;28;20485;-53
2022/03/29 00:35:31;;;;;;;49.70;24.53;;;6.70;1.00;;;;;;4994318;28;20424;-52
2022/03/29 00:37:57;;;;;;;52.00;24.67;;;6.60;1.00;;;;;;4989242;28;20277;-53
2022/03/29 00:40:23;;;;;;;59.63;25.47;;;6.60;1.00;;;;;;4992025;28;20728;-52
2022/03/29 00:42:48;;;;;;;54.33;25.13;;;6.60;1.00;;;;;;4994491;28;20191;-53
2022/03/29 00:45:15;;;;;;;56.70;27.13;;;6.60;1.00;;;;;;4991738;28;20188;-52
2022/03/29 00:47:41;;;;;;;53.10;26.10;;;6.60;1.00;;;;;;4991919;28;20196;-53
2022/03/29 00:50:07;;;;;;;53.37;25.20;;;6.60;1.00;;;;;;4992483;28;20430;-49
2022/03/29 00:52:33;;;;;;;48.47;23.93;;;6.50;1.00;;;;;;4991577;28;20424;-49
2022/03/29 00:55:00;;;;;;;44.60;23.07;;;6.50;1.00;;;;;;4995613;28;20472;-49
2022/03/29 00:57:28;;;;;;;50.80;25.27;;;6.60;1.00;;;;;;4992085;28;20499;-49
2022/03/29 00:59:55;;;;;;;58.70;24.80;;;6.60;1.00;;;;;;4991532;28;20696;-49
2022/03/29 01:02:21;;;;;;;51.97;24.47;;;6.60;1.00;;;;;;4993129;28;20783;-49
2022/03/29 01:04:47;;;;;;;50.30;24.37;;;6.60;1.00;;;;;;4993386;28;20463;-49
2022/03/29 01:07:13;;;;;;;57.60;22.70;;;6.60;1.00;;;;;;4991811;28;20180;-49
2022/03/29 01:09:39;;;;;;;48.27;22.20;;;6.60;1.00;;;;;;4994030;28;20430;-50
2022/03/29 01:12:05;;;;;;;49.90;22.87;;;6.60;1.00;;;;;;4991667;28;20851;-49
2022/03/29 01:14:31;;;;;;;49.17;22.90;;;6.60;1.00;;;;;;4991406;28;20223;-49
2022/03/29 01:19:43;;;;;;;43.03;22.40;;;6.50;1.00;;;;;;4989805;28;20580;-49
2022/03/29 01:22:10;;;;;;;41.30;22.40;;;6.60;1.00;;;;;;4990266;28;20439;-49
2022/03/29 01:24:39;;;;;;;50.07;22.13;;;6.50;1.00;;;;;;4974006;28;20972;-49
2022/03/29 01:27:07;;;;;;;48.67;21.97;;;6.60;1.00;;;;;;4987923;28;20427;-49
2022/03/29 01:29:33;;;;;;;45.60;21.90;;;6.50;1.00;;;;;;4990738;28;20439;-53
2022/03/29 01:32:03;;;;;;;43.77;22.30;;;6.50;1.00;;;;;;4994618;28;20890;-53
2022/03/29 01:34:30;;;;;;;54.07;23.23;;;6.50;1.00;;;;;;4989857;28;20798;-53
2022/03/29 01:36:55;;;;;;;43.37;21.30;;;6.50;1.00;;;;;;4991512;28;20434;-52
2022/03/29 01:39:21;;;;;;;50.30;19.93;;;6.60;1.00;;;;;;4990083;28;20925;-53
2022/03/29 01:41:47;;;;;;;45.50;19.57;;;6.70;99.90;;;;;;4989944;28;20192;-52
2022/03/29 01:44:13;;;;;;;40.57;20.83;;;6.60;99.90;;;;;;4990706;28;20235;-53
2022/03/29 01:46:39;;;;;;;41.17;21.23;;;6.60;99.90;;;;;;4990670;28;20466;-52
2022/03/29 01:49:05;;;;;;;36.40;21.10;;;6.60;1.00;;;;;;4973121;28;20446;-53
2022/03/29 01:51:32;;;;;;;43.03;21.60;;;6.70;99.90;;;;;;4990868;28;20184;-53
2022/03/29 01:53:59;;;;;;;49.27;21.77;;;6.60;1.00;;;;;;4988223;28;20811;-52
2022/03/29 01:56:31;;;;;;;40.10;20.63;;;6.60;1.00;;;;;;4990472;28;20522;-52
2022/03/29 01:58:57;;;;;;;41.47;19.80;;;6.60;99.90;;;;;;4993542;28;20481;-53
2022/03/29 02:01:23;;;;;;;51.47;20.83;;;6.70;99.90;;;;;;4990412;28;20782;-53
2022/03/29 02:03:48;;;;;;;48.73;19.17;;;6.60;1.00;;;;;;4990040;28;20526;-52
2022/03/29 02:06:14;;;;;;;33.93;18.63;;;6.70;99.90;;;;;;4989548;28;20256;-59
2022/03/29 02:08:40;;;;;;;38.07;18.57;;;6.60;99.90;;;;;;4990038;28;20176;-53
2022/03/29 02:11:07;;;;;;;38.80;18.87;;;6.70;99.90;;;;;;4994945;28;20438;-53
2022/03/29 02:13:33;;;;;;;39.00;18.47;;;6.70;99.90;;;;;;5004691;28;20657;-52
2022/03/29 02:15:58;;;;;;;34.80;18.93;;;6.60;99.90;;;;;;4989849;28;20489;-53
2022/03/29 02:18:24;;;;;;;36.47;19.17;;;6.60;99.90;;;;;;4992393;28;20544;-52
2022/03/29 02:20:49;;;;;;;39.47;19.67;;;6.60;99.90;;;;;;4999782;28;20231;-52
2022/03/29 02:23:15;;;;;;;46.00;19.50;;;6.70;99.90;;;;;;4990119;28;20790;-52
2022/03/29 02:25:42;;;;;;;39.87;19.90;;;6.70;99.90;;;;;;4989627;28;20180;-53
2022/03/29 02:28:08;;;;;;;38.70;19.50;;;6.70;1.00;;;;;;4995962;28;20462;-53
2022/03/29 02:30:35;;;;;;;40.30;21.27;;;6.70;1.00;;;;;;4991296;28;20466;-53
2022/03/29 02:33:05;;;;;;;47.03;20.73;;;6.70;1.00;;;;;;4988682;28;20224;-52
2022/03/29 02:35:30;;;;;;;47.97;20.70;;;6.70;1.00;;;;;;4992374;28;20522;-52
2022/03/29 02:37:56;;;;;;;40.73;20.23;;;6.60;1.00;;;;;;4990825;28;20526;-53
2022/03/29 02:40:21;;;;;;;36.30;19.03;;;6.70;1.00;;;;;;4989084;28;20943;-52
2022/03/29 02:42:49;;;;;;;42.47;19.73;;;6.70;1.00;;;;;;4991087;28;20188;-53
2022/03/29 02:45:16;;;;;;;36.83;19.40;;;6.60;1.00;;;;;;4989867;28;20191;-53
2022/03/29 02:47:43;;;;;;;40.30;19.37;;;6.70;1.00;;;;;;4988851;28;20695;-53
2022/03/29 02:50:09;;;;;;;38.03;17.30;;;6.70;1.00;;;;;;4990026;28;20443;-52
2022/03/29 02:52:42;;;;;;;35.20;15.57;;;6.80;99.90;;;;;;4988350;28;20427;-52
2022/03/29 02:55:08;;;;;;;34.27;15.60;;;6.70;99.90;;;;;;4992699;28;20202;-53
2022/03/29 02:57:33;;;;;;;33.77;15.10;;;6.60;99.90;;;;;;4989081;28;20444;-52
2022/03/29 02:59:59;;;;;;;28.10;13.03;;;6.50;99.90;;;;;;4993131;28;20239;-52
2022/03/29 03:02:24;;;;;;;22.63;11.17;;;6.50;99.90;;;;;;4995644;28;20196;-53
2022/03/29 03:04:50;;;;;;;24.87;12.27;;;6.30;99.90;;;;;;4989780;28;20539;-53
2022/03/29 03:07:15;;;;;;;20.37;10.87;;;6.20;99.90;;;;;;4989379;28;20231;-52
2022/03/29 03:09:41;;;;;;;34.60;11.97;;;6.10;99.90;;;;;;4989490;28;20567;-53
2022/03/29 03:12:07;;;;;;;29.27;11.23;;;6.00;99.90;;;;;;4989348;28;20276;-53
2022/03/29 03:14:33;;;;;;;26.23;11.70;;;5.90;99.90;;;;;;4990270;28;20439;-52
2022/03/29 03:16:59;;;;;;;24.63;10.73;;;5.90;99.90;;;;;;4992512;28;20755;-52
2022/03/29 03:19:24;;;;;;;22.57;10.50;;;5.80;99.90;;;;;;4989787;28;20189;-53
2022/03/29 03:21:50;;;;;;;27.87;11.27;;;5.70;99.90;;;;;;4989176;28;20184;-53
2022/03/29 03:24:17;;;;;;;23.67;10.83;;;5.70;99.90;;;;;;4989002;28;20207;-52
2022/03/29 03:26:42;;;;;;;23.00;9.33;;;5.60;99.90;;;;;;4988639;28;20238;-53
2022/03/29 03:29:08;;;;;;;21.17;9.13;;;5.60;99.90;;;;;;4988751;28;20494;-53
2022/03/29 03:31:34;;;;;;;25.90;10.33;;;5.50;99.90;;;;;;4991447;28;20250;-53
2022/03/29 03:33:59;;;;;;;26.83;9.43;;;5.40;1.00;;;;;;4990215;28;20239;-52
2022/03/29 03:36:25;;;;;;;26.63;9.37;;;5.30;1.00;;;;;;4989574;28;20208;-53
2022/03/29 03:38:50;;;;;;;22.53;9.90;;;5.30;1.00;;;;;;4989950;28;20189;-53
2022/03/29 03:41:16;;;;;;;30.93;9.43;;;5.30;1.00;;;;;;4989291;28;20215;-53
2022/03/29 03:43:41;;;;;;;27.90;9.20;;;5.20;1.00;;;;;;4982068;28;20307;-53
2022/03/29 03:46:07;;;;;;;15.63;7.80;;;5.10;1.00;;;;;;4989597;28;20275;-52
2022/03/29 03:48:33;;;;;;;25.23;8.77;;;5.00;1.00;;;;;;4974166;28;20283;-52
2022/03/29 03:50:58;;;;;;;23.23;8.27;;;5.00;1.00;;;;;;4988670;28;20428;-53
2022/03/29 03:53:24;;;;;;;19.40;7.67;;;4.90;1.00;;;;;;4990498;28;20181;-52
2022/03/29 03:55:49;;;;;;;31.33;7.50;;;4.90;1.00;;;;;;4988167;28;20188;-52
2022/03/29 03:58:16;;;;;;;24.10;7.10;;;4.80;1.00;;;;;;4988517;28;20239;-52
2022/03/29 04:00:42;;;;;;;25.43;6.40;;;4.90;1.00;;;;;;4989926;28;20192;-52
2022/03/29 04:03:09;;;;;;;36.93;6.20;;;4.80;1.00;;;;;;4990363;28;20486;-53
2022/03/29 04:05:34;;;;;;;37.10;6.33;;;4.70;1.00;;;;;;4992764;28;20208;-53
2022/03/29 04:08:00;;;;;;;29.47;6.00;;;4.70;1.00;;;;;;4992414;28;20447;-52
2022/03/29 04:10:26;;;;;;;23.40;5.50;;;4.60;1.00;;;;;;4992984;28;20186;-52
2022/03/29 04:12:51;;;;;;;43.37;6.40;;;4.60;1.00;;;;;;4993598;28;20308;-53
2022/03/29 04:15:17;;;;;;;30.07;5.37;;;4.60;1.00;;;;;;4994221;28;20328;-53
2022/03/29 04:17:42;;;;;;;31.00;6.33;;;4.60;1.00;;;;;;4993021;28;20192;-53
2022/03/29 04:20:09;;;;;;;25.73;6.00;;;4.50;1.00;;;;;;4995590;28;20187;-53
2022/03/29 04:22:34;;;;;;;35.27;5.90;;;4.40;1.00;;;;;;4976493;28;20185;-53
2022/03/29 04:25:00;;;;;;;34.57;5.77;;;4.30;1.00;;;;;;4991986;28;20478;-52
2022/03/29 04:27:25;;;;;;;33.33;6.53;;;4.30;1.00;;;;;;4991627;28;20187;-52
2022/03/29 04:29:51;;;;;;;24.57;5.67;;;4.30;1.00;;;;;;4992090;28;20238;-53
2022/03/29 04:32:16;;;;;;;39.40;6.40;;;4.30;1.00;;;;;;4994850;28;20200;-49
2022/03/29 04:34:44;;;;;;;33.17;6.53;;;4.20;1.00;;;;;;4995323;28;20188;-49
2022/03/29 04:37:10;;;;;;;24.27;5.90;;;4.20;1.00;;;;;;4991259;28;20184;-49
2022/03/29 04:39:38;;;;;;;25.43;5.60;;;4.10;1.00;;;;;;4991811;28;20428;-49
2022/03/29 04:42:04;;;;;;;24.83;5.10;;;4.20;35.90;;;;;;4991149;28;20184;-49
2022/03/29 04:44:30;;;;;;;40.10;6.83;;;4.10;19.30;;;;;;4990922;28;20475;-49
2022/03/29 04:46:56;;;;;;;35.10;6.03;;;4.10;55.70;;;;;;4990886;28;20423;-49
2022/03/29 04:49:22;;;;;;;30.63;5.90;;;4.10;99.90;;;;;;4994943;28;20422;-49
2022/03/29 04:51:47;;;;;;;21.40;5.63;;;4.10;49.20;;;;;;4991711;28;20184;-49
2022/03/29 04:54:13;;;;;;;33.80;5.53;;;4.10;21.30;;;;;;4991740;28;20298;-49
2022/03/29 04:56:39;;;;;;;27.57;5.00;;;4.00;1.00;;;;;;4998643;28;20678;-49
2022/03/29 04:59:05;;;;;;;25.80;4.90;;;4.00;1.00;;;;;;4993052;28;20359;-49
2022/03/29 05:01:30;;;;;;;26.50;5.20;;;3.90;11.90;;;;;;4991845;28;20189;-52
2022/03/29 05:03:56;;;;;;;39.43;6.03;;;3.90;12.30;;;;;;4994122;28;21186;-49
2022/03/29 05:06:21;;;;;;;24.67;5.40;;;3.80;79.30;;;;;;4992387;28;20637;-49
2022/03/29 05:08:47;;;;;;;29.13;4.90;;;3.80;65.10;;;;;;4992072;28;20192;-49
2022/03/29 05:11:12;;;;;;;28.00;5.00;;;3.80;92.10;;;;;;4992738;28;20665;-49
2022/03/29 05:13:38;;;;;;;27.53;5.13;;;3.80;69.70;;;;;;5000660;28;20200;-49
2022/03/29 05:16:05;;;;;;;32.77;5.17;;;3.80;28.80;;;;;;4992508;28;20761;-49
2022/03/29 05:18:30;;;;;;;26.63;4.90;;;3.70;23.70;;;;;;4991592;28;20323;-49
2022/03/29 05:20:56;;;;;;;26.43;5.57;;;3.70;49.40;;;;;;4991939;28;20526;-49
2022/03/29 05:23:22;;;;;;;23.53;4.93;;;3.70;95.80;;;;;;4994879;28;20682;-49
2022/03/29 05:25:48;;;;;;;20.40;4.30;;;3.70;40.30;;;;;;4995518;28;20188;-49
2022/03/29 05:28:14;;;;;;;22.13;4.90;;;3.70;28.70;;;;;;4990880;28;21090;-50
2022/03/29 05:30:39;;;;;;;31.57;4.77;;;3.70;5.50;;;;;;4987341;28;20633;-49
2022/03/29 05:33:05;;;;;;;38.13;5.63;;;3.70;5.80;;;;;;4992162;28;20235;-49
2022/03/29 05:35:32;;;;;;;23.17;4.30;;;3.60;14.10;;;;;;4991540;28;20180;-49
2022/03/29 05:37:59;;;;;;;24.83;5.57;;;3.60;31.60;;;;;;4994558;28;20188;-50
2022/03/29 05:40:26;;;;;;;29.70;5.23;;;3.70;35.40;;;;;;4991842;28;20586;-49
2022/03/29 05:42:52;;;;;;;28.27;5.37;;;3.70;1.00;;;;;;4991622;28;20780;-49
2022/03/29 05:45:18;;;;;;;25.03;4.30;;;3.70;1.00;;;;;;4991251;28;20527;-49
2022/03/29 05:50:28;;;;;;;27.93;4.43;;;3.80;1.00;;;;;;4991721;28;20514;-49
2022/03/29 05:52:55;;;;;;;27.67;5.17;;;3.80;1.00;;;;;;4970508;28;20486;-49
2022/03/29 05:55:22;;;;;;;23.30;4.53;;;3.80;1.00;;;;;;4999110;28;20444;-49
2022/03/29 05:57:50;;;;;;;37.47;5.30;;;3.90;1.00;;;;;;4998493;28;20450;-49
2022/03/29 06:00:17;;;;;;;20.93;4.10;;;3.90;1.00;;;;;;4990747;28;20479;-49
2022/03/29 06:02:43;;;;;;;18.57;3.70;;;4.00;1.00;;;;;;4995736;28;21109;-49
2022/03/29 06:05:09;;;;;;;24.50;4.30;;;4.00;1.00;;;;;;4990459;28;20550;-49
2022/03/29 06:07:35;;;;;;;27.73;4.87;;;4.10;1.00;;;;;;4990331;28;20439;-49
2022/03/29 06:10:06;;;;;;;22.10;4.70;;;4.20;1.00;;;;;;4999260;28;20430;-49
2022/03/29 06:12:32;;;;;;;21.97;4.40;;;4.20;1.00;;;;;;4988931;28;20416;-49
2022/03/29 06:15:02;;;;;;;39.67;4.30;;;4.30;1.00;;;;;;4990837;28;20538;-49
2022/03/29 06:17:27;;;;;;;20.67;4.60;;;4.50;1.00;;;;;;5001332;28;21310;-49
2022/03/29 06:19:54;;;;;;;30.97;5.47;;;4.50;1.00;;;;;;4993216;28;20474;-50
2022/03/29 06:22:20;;;;;;;25.67;3.50;;;4.60;1.00;;;;;;4998278;28;20188;-49
2022/03/29 06:24:46;;;;;;;25.50;4.27;;;4.70;1.00;;;;;;4991658;28;20478;-49
2022/03/29 06:27:11;;;;;;;24.40;4.73;;;4.80;1.00;;;;;;4991580;28;20183;-49
2022/03/29 06:29:37;;;;;;;21.70;4.40;;;4.90;1.00;;;;;;4977512;28;20295;-49
2022/03/29 06:32:03;;;;;;;19.80;3.20;;;5.00;1.00;;;;;;4994772;28;20270;-49
2022/03/29 06:34:29;;;;;;;29.40;4.57;;;5.20;99.90;;;;;;4994882;28;20200;-49
2022/03/29 06:36:55;;;;;;;19.77;3.50;;;5.30;99.90;;;;;;4990820;28;20906;-49
2022/03/29 06:39:21;;;;;;;25.27;4.20;;;5.40;99.90;;;;;;4991337;28;21052;-49
2022/03/29 06:41:47;;;;;;;20.40;4.57;;;5.60;99.90;;;;;;4992228;28;20455;-49
2022/03/29 06:44:13;;;;;;;20.17;3.57;;;5.70;99.90;;;;;;4987210;28;20279;-49
2022/03/29 06:46:39;;;;;;;29.57;3.63;;;5.80;99.90;;;;;;4994008;28;20226;-49
2022/03/29 06:49:06;;;;;;;28.47;4.43;;;5.90;99.90;;;;;;4988722;28;20486;-49
2022/03/29 06:51:35;;;;;;;17.43;3.10;;;6.20;99.90;;;;;;4989022;28;20494;-49
2022/03/29 06:54:03;;;;;;;23.57;4.03;;;6.40;99.90;;;;;;4988710;28;21175;-49
2022/03/29 06:56:30;;;;;;;23.30;3.43;;;6.50;99.90;;;;;;4988110;28;20546;-49
2022/03/29 06:58:57;;;;;;;17.27;3.27;;;6.60;99.90;;;;;;4990048;28;20490;-49
2022/03/29 07:01:22;;;;;;;24.57;3.60;;;6.60;99.90;;;;;;4990456;28;20432;-49
2022/03/29 07:03:48;;;;;;;21.30;3.67;;;6.70;99.90;;;;;;4992137;28;20481;-48
2022/03/29 07:06:14;;;;;;;25.60;3.67;;;6.90;99.90;;;;;;4997797;28;20188;-48
2022/03/29 07:11:16;;;;;;;23.43;4.00;;;7.20;99.90;;;;;;4989915;28;20196;-49
2022/03/29 07:11:25;;;;;;;15.87;3.97;;;7.40;99.90;;;;;;4987798;28;20177;-48
2022/03/29 07:13:50;;;;;;;12.90;2.67;;;7.80;99.90;;;;;;4994342;28;20446;-48
2022/03/29 07:16:16;;;;;;;14.10;3.03;;;7.90;99.90;;;;;;5007365;28;20587;-48
2022/03/29 07:18:42;;;;;;;17.20;3.13;;;8.10;99.90;;;;;;4995149;28;20990;-48
2022/03/29 07:21:10;;;;;;;21.60;3.60;;;8.20;99.90;;;;;;4995899;28;20184;-49
2022/03/29 07:23:36;;;;;;;17.33;2.70;;;8.20;99.90;;;;;;5007889;28;20478;-48
2022/03/29 07:26:02;;;;;;;16.93;2.93;;;8.20;99.90;;;;;;4990485;28;20431;-49
2022/03/29 07:28:28;;;;;;;13.87;2.57;;;8.30;99.90;;;;;;4985624;28;20439;-50
2022/03/29 07:30:53;;;;;;;18.80;2.60;;;8.20;99.90;;;;;;4991236;28;20246;-49
2022/03/29 07:33:19;;;;;;;21.17;3.33;;;8.50;99.90;;;;;;5004366;28;20187;-48
2022/03/29 07:35:45;;;;;;;19.67;2.90;;;8.80;99.90;;;;;;4993702;28;20263;-48
2022/03/29 07:38:11;;;;;;;25.10;2.90;;;9.00;99.90;;;;;;4990648;28;20271;-49
2022/03/29 07:40:39;;;;;;;19.53;3.03;;;9.30;99.90;;;;;;4997906;28;20539;-48
2022/03/29 07:43:05;;;;;;;14.47;2.87;;;9.20;99.90;;;;;;4997705;28;20441;-49
2022/03/29 07:45:31;;;;;;;11.90;2.77;;;9.00;99.90;;;;;;4977042;28;20442;-49
2022/03/29 07:47:57;;;;;;;15.63;3.00;;;8.90;99.90;;;;;;4995364;28;20765;-48
2022/03/29 07:50:24;;;;;;;15.53;2.30;;;8.70;99.90;;;;;;4993438;28;20188;-50
2022/03/29 07:52:50;;;;;;;12.90;2.33;;;8.30;99.90;;;;;;4992760;28;20196;-48
2022/03/29 07:55:16;;;;;;;10.73;2.37;;;8.20;99.90;;;;;;4993772;28;20913;-48
2022/03/29 07:57:43;;;;;;;12.60;2.83;;;8.30;99.90;;;;;;5001494;28;20212;-48
2022/03/29 08:02:55;;;;;;;8.70;2.43;;;8.60;99.90;;;;;;4992229;28;20511;-48
2022/03/29 08:05:21;;;;;;;10.60;2.23;;;9.10;99.90;;;;;;4995380;28;20553;-48
2022/03/29 08:07:47;;;;;;;13.47;2.40;;;9.40;99.90;;;;;;4997101;28;20428;-54
2022/03/29 08:10:13;;;;;;;12.87;2.67;;;9.60;99.90;;;;;;4993594;28;20573;-49
2022/03/29 08:12:40;;;;;;;12.27;3.77;;;9.80;99.90;;;;;;5002613;28;20534;-48
2022/03/29 08:15:08;;;;;;;14.70;2.50;;;9.80;99.90;;;;;;4993490;28;20435;-48
2022/03/29 08:17:33;;;;;;;17.83;3.53;;;10.00;99.90;;;;;;4993789;28;20443;-48
2022/03/29 08:19:59;;;;;;;15.13;2.80;;;10.10;99.90;;;;;;4993480;28;20490;-49
2022/03/29 08:22:25;;;;;;;16.20;3.20;;;9.90;99.90;;;;;;4993267;28;20302;-53
2022/03/29 08:24:51;;;;;;;10.30;2.57;;;9.70;99.90;;;;;;4993648;28;20296;-48
2022/03/29 08:27:16;;;;;;;10.53;2.27;;;9.50;99.90;;;;;;4992688;28;20195;-52
2022/03/29 08:29:42;;;;;;;9.97;2.50;;;9.30;99.90;;;;;;4993283;28;20196;-49
2022/03/29 08:32:08;;;;;;;14.93;2.30;;;9.70;99.90;;;;;;4987234;28;20263;-49
2022/03/29 08:34:33;;;;;;;5.90;2.03;;;10.30;99.90;;;;;;4993238;28;20805;-49
2022/03/29 08:36:59;;;;;;;11.30;2.97;;;10.70;99.90;;;;;;4993760;28;20439;-49
2022/03/29 08:39:24;;;;;;;10.53;2.37;;;11.20;99.90;;;;;;4996863;28;20204;-49
2022/03/29 08:42:02;;;;;;;7.60;2.40;;;11.50;99.90;;;;;;5011940;28;20519;-48
2022/03/29 08:44:30;;;;;;;15.17;3.00;;;11.50;99.90;;;;;;4995301;28;20246;-48
2022/03/29 08:46:55;;;;;;;11.60;3.70;;;11.40;99.90;;;;;;4987510;28;20570;-48
2022/03/29 08:49:22;;;;;;;8.73;2.30;;;11.30;99.90;;;;;;4984590;28;20558;-49
2022/03/29 08:51:48;;;;;;;14.07;2.37;;;11.00;99.90;;;;;;4992424;28;20189;-49
2022/03/29 08:54:15;;;;;;;16.50;2.70;;;10.90;99.90;;;;;;4987037;28;20826;-49
2022/03/29 08:56:40;;;;;;;12.20;2.40;;;11.20;99.90;;;;;;4990945;28;20431;-49
2022/03/29 08:59:06;;;;;;;9.50;2.50;;;11.70;99.90;;;;;;4998936;28;20477;-49
2022/03/29 09:01:32;;;;;;;7.40;1.97;;;12.10;99.90;;;;;;4994650;28;20423;-49
2022/03/29 09:04:29;;;;;;;12.93;2.37;;;12.60;99.90;;;;;;4992360;28;20677;-49
2022/03/29 09:06:57;;;;;;;11.93;2.20;;;12.70;99.90;;;;;;4983355;28;20490;-53
2022/03/29 09:09:41;;;;;;;8.97;2.03;;;12.50;99.90;;;;;;4998601;28;20443;-49
2022/03/29 09:12:17;;;;;;;8.30;2.03;;;12.10;99.90;;;;;;4989966;28;20526;-49
2022/03/29 09:15:09;;;;;;;8.67;1.90;;;12.50;99.90;;;;;;4991635;28;20434;-49
2022/03/29 09:17:38;;;;;;;12.73;2.80;;;12.80;99.90;;;;;;4989181;28;20513;-49
2022/03/29 09:20:07;;;;;;;9.47;2.53;;;12.90;99.90;;;;;;4992233;28;20436;-49
2022/03/29 09:22:37;;;;;;;8.20;2.17;;;12.30;99.90;;;;;;4991401;28;20443;-49
2022/03/29 09:25:04;;;;;;;8.17;2.57;;;11.80;99.90;;;;;;4991025;28;20501;-49
2022/03/29 09:27:29;;;;;;;9.70;2.17;;;11.90;99.90;;;;;;4984078;28;20431;-49
2022/03/29 09:30:09;;;;;;;10.77;2.30;;;12.10;99.90;;;;;;4991732;28;20490;-50
2022/03/29 09:33:01;;;;;;;8.90;2.20;;;12.10;99.90;;;;;;4984313;28;20180;-49
2022/03/29 09:35:27;;;;;;;7.67;2.00;;;12.00;99.90;;;;;;4991041;28;20435;-49
2022/03/29 09:37:54;;;;;;;11.73;2.40;;;11.60;99.90;;;;;;4993396;28;20431;-49
2022/03/29 09:40:20;;;;;;;11.13;2.13;;;11.80;99.90;;;;;;4993153;28;20428;-49
2022/03/29 09:43:05;;;;;;;9.73;2.50;;;12.00;99.90;;;;;;4993045;28;20471;-49
2022/03/29 09:45:42;;;;;;;9.77;2.10;;;12.20;99.90;;;;;;4989855;28;20489;-49
2022/03/29 09:48:22;;;;;;;12.17;2.00;;;11.90;99.90;;;;;;4990843;28;20474;-49
2022/03/29 09:50:49;;;;;;;7.30;2.03;;;11.80;99.90;;;;;;4990514;28;20987;-49
2022/03/29 09:53:40;;;;;;;12.40;2.60;;;11.60;99.90;;;;;;4966329;28;21028;-49
2022/03/29 09:56:08;;;;;;;10.47;2.00;;;11.60;99.90;;;;;;4989553;28;20494;-49
2022/03/29 09:58:34;;;;;;;12.23;2.10;;;11.50;99.90;;;;;;4987593;28;20541;-50
2022/03/29 10:01:02;;;;;;;14.73;2.20;;;11.30;99.90;;;;;;4980606;28;20456;-49
2022/03/29 10:03:28;;;;;;;23.83;2.80;;;11.20;99.90;;;;;;4990387;28;20488;-49
2022/03/29 10:06:01;;;;;;;6.30;2.03;;;11.50;99.90;;;;;;4989577;28;20427;-49
2022/03/29 10:11:15;;;;;;;15.40;2.47;;;11.60;99.90;;;;;;4987602;28;20974;-49
2022/03/29 10:13:42;;;;;;;12.07;2.13;;;11.80;99.90;;;;;;4992836;28;20450;-49
2022/03/29 10:16:16;;;;;;;4.77;2.07;;;11.70;99.90;;;;;;4986376;28;20475;-49
2022/03/29 10:18:44;;;;;;;11.13;2.30;;;11.40;99.90;;;;;;4990667;28;20834;-57
2022/03/29 10:21:12;;;;;;;10.73;2.40;;;11.70;99.90;;;;;;4985669;28;20447;-53
2022/03/29 10:23:37;;;;;;;6.70;1.90;;;12.00;99.90;;;;;;4990092;28;20492;-53
2022/03/29 10:26:04;;;;;;;11.57;1.90;;;12.00;99.90;;;;;;4988564;28;20448;-53
2022/03/29 10:28:30;;;;;;;16.63;2.83;;;11.80;99.90;;;;;;4991089;28;20184;-53
2022/03/29 10:30:57;;;;;;;8.77;2.20;;;11.90;99.90;;;;;;4991473;28;20921;-52
2022/03/29 10:33:24;;;;;;;13.50;2.30;;;12.00;99.90;;;;;;4991041;28;20450;-53
2022/03/29 10:35:58;;;;;;;12.73;2.67;;;11.90;99.90;;;;;;4991324;28;20578;-53
2022/03/29 10:38:42;;;;;;;3.90;1.73;;;11.90;99.90;;;;;;4985144;28;20442;-53
2022/03/29 10:41:28;;;;;;;4.87;2.07;;;11.90;99.90;;;;;;4990514;28;20887;-53
2022/03/29 10:44:05;;;;;;;7.30;1.93;;;12.00;99.90;;;;;;4982981;28;20507;-53
2022/03/29 10:46:39;;;;;;;7.13;1.97;;;12.20;99.90;;;;;;4984239;28;21021;-53
2022/03/29 10:49:28;;;;;;;7.17;1.60;;;12.40;99.90;;;;;;4984471;28;20541;-54
2022/03/29 10:52:16;;;;;;;13.00;1.70;;;12.80;99.90;;;;;;4982047;28;20430;-53
2022/03/29 10:54:42;;;;;;;5.90;2.07;;;13.00;99.90;;;;;;4986623;28;20466;-52
2022/03/29 10:57:14;;;;;;;6.77;1.90;;;13.40;99.90;;;;;;4982927;28;20436;-52
2022/03/29 10:59:40;;;;;;;7.97;1.70;;;13.60;99.90;;;;;;4988276;28;20258;-52
2022/03/29 11:02:08;;;;;;;14.97;1.70;;;14.10;99.90;;;;;;4990571;28;20439;-53
2022/03/29 11:04:35;;;;;;;9.30;1.83;;;14.70;99.90;;;;;;4988229;28;20497;-51
2022/03/29 11:07:06;;;;;;;8.93;2.20;;;15.30;99.90;;;;;;4987373;28;20502;-51
2022/03/29 11:09:37;;;;;;;6.57;1.73;;;15.20;99.90;;;;;;4984307;28;20439;-52
2022/03/29 11:12:04;;;;;;;9.63;1.87;;;15.30;99.90;;;;;;4987159;28;21201;-52
2022/03/29 11:14:33;;;;;;;5.60;1.87;;;15.10;99.90;;;;;;4983219;28;20427;-51
2022/03/29 11:17:17;;;;;;;8.30;2.00;;;15.50;99.90;;;;;;4989773;28;20451;-56
2022/03/29 11:19:46;;;;;;;9.07;1.80;;;15.40;99.90;;;;;;4986078;28;20442;-52
2022/03/29 11:22:29;;;;;;;6.47;1.60;;;15.60;99.90;;;;;;4985016;28;20921;-52
2022/03/29 11:25:00;;;;;;;6.03;1.83;;;15.60;99.90;;;;;;4971503;28;20470;-52
2022/03/29 11:27:28;;;;;;;4.87;1.73;;;15.50;99.90;;;;;;4989840;28;20431;-52
2022/03/29 11:29:54;;;;;;;10.20;1.70;;;15.40;99.90;;;;;;4988557;28;20438;-52
2022/03/29 11:32:20;;;;;;;7.13;1.80;;;15.80;99.90;;;;;;4988214;28;20548;-52
2022/03/29 11:34:51;;;;;;;5.13;1.80;;;15.50;99.90;;;;;;4987405;28;20439;-52
2022/03/29 11:37:27;;;;;;;7.33;2.00;;;15.20;99.90;;;;;;4982409;28;20206;-52
2022/03/29 11:39:53;;;;;;;13.90;1.90;;;15.40;99.90;;;;;;4991195;28;20538;-52
2022/03/29 11:42:19;;;;;;;10.53;2.30;;;15.70;99.90;;;;;;5003643;28;20887;-54
2022/03/29 11:44:49;;;;;;;7.53;2.20;;;16.40;99.90;;;;;;4989626;28;20589;-52
2022/03/29 11:47:15;;;;;;;7.10;1.70;;;16.10;99.90;;;;;;4989350;28;20438;-52
2022/03/29 11:49:42;;;;;;;17.00;2.70;;;15.50;99.90;;;;;;4993139;28;20428;-52
2022/03/29 11:52:20;;;;;;;13.93;1.70;;;15.50;99.90;;;;;;4989322;28;20192;-52
2022/03/29 11:54:53;;;;;;;3.93;1.43;;;16.10;99.90;;;;;;4988408;28;20431;-53
2022/03/29 11:57:30;;;;;;;4.80;1.90;;;16.50;99.90;;;;;;4989157;28;20507;-52
2022/03/29 11:59:57;;;;;;;6.57;1.90;;;16.90;99.90;;;;;;4993413;28;21287;-52
2022/03/29 12:02:27;;;;;;;7.93;2.37;;;16.90;99.90;;;;;;4989536;28;20440;-52
2022/03/29 12:04:53;;;;;;;10.57;2.43;;;17.00;99.90;;;;;;4988864;28;20470;-52
2022/03/29 12:07:36;;;;;;;6.80;2.27;;;17.00;99.90;;;;;;4986338;28;20448;-52
2022/03/29 12:10:02;;;;;;;4.70;1.73;;;16.00;99.90;;;;;;4993413;28;20462;-52
2022/03/29 12:12:27;;;;;;;9.47;2.07;;;16.00;99.90;;;;;;4988787;28;20714;-54
2022/03/29 12:15:06;;;;;;;5.50;1.77;;;15.80;99.90;;;;;;4986921;28;20192;-53
2022/03/29 12:17:34;;;;;;;4.50;1.77;;;15.70;99.90;;;;;;4993079;28;20215;-53
2022/03/29 12:20:00;;;;;;;9.10;1.80;;;15.60;99.90;;;;;;4993779;28;22080;-52
2022/03/29 12:22:29;;;;;;;8.67;1.70;;;15.80;99.90;;;;;;4991192;28;20574;-53
2022/03/29 12:24:57;;;;;;;6.33;1.77;;;16.20;99.90;;;;;;4991794;28;20460;-52
2022/03/29 12:27:23;;;;;;;10.80;2.10;;;16.60;99.90;;;;;;4986780;28;20435;-53
2022/03/29 12:29:56;;;;;;;7.03;1.67;;;16.20;99.90;;;;;;4992458;28;20979;-52
2022/03/29 12:32:22;;;;;;;11.53;1.70;;;16.20;99.90;;;;;;4992487;28;20420;-52
2022/03/29 12:34:59;;;;;;;13.07;1.70;;;16.00;99.90;;;;;;4991478;28;20430;-51
2022/03/29 12:37:27;;;;;;;11.43;2.13;;;16.30;99.90;;;;;;4992294;28;20467;-52
2022/03/29 12:39:55;;;;;;;12.00;2.10;;;16.10;99.90;;;;;;4974713;28;20486;-52
2022/03/29 12:42:22;;;;;;;4.93;1.73;;;16.00;99.90;;;;;;4993675;28;20429;-51
2022/03/29 12:44:56;;;;;;;7.63;2.00;;;16.00;99.90;;;;;;4976423;28;20524;-51
2022/03/29 12:47:24;;;;;;;6.97;1.50;;;16.10;99.90;;;;;;4991295;28;20449;-52
2022/03/29 12:49:51;;;;;;;2.47;1.37;;;15.60;99.90;;;;;;4990692;28;20427;-53
2022/03/29 12:52:18;;;;;;;11.67;1.83;;;15.70;99.90;;;;;;4993004;28;20422;-52
2022/03/29 12:54:46;;;;;;;8.43;1.87;;;15.90;99.90;;;;;;4992126;28;20436;-52
2022/03/29 12:57:14;;;;;;;10.70;2.20;;;15.90;99.90;;;;;;4991718;28;20555;-52
2022/03/29 12:59:45;;;;;;;9.03;1.67;;;15.70;99.90;;;;;;4991495;28;20506;-51